sensor_id;sensor_type;location;lat;lon;timestamp;P1;durP1;ratioP1;P2;durP2;ratioP2
6864;SDS011;3471;49.678;8.388;2022-08-19T07:46:51;13.13;;;7.90;;
6864;SDS011;3471;49.678;8.388;2022-08-19T07:49:19;7.63;;;6.83;;
6864;SDS011;3471;49.678;8.388;2022-08-19T07:51:50;7.00;;;6.40;;
6864;SDS011;3471;49.678;8.388;2022-08-19T07:54:19;11.50;;;10.43;;
6864;SDS011;3471;49.678;8.388;2022-08-19T07:56:46;8.27;;;7.37;;
6864;SDS011;3471;49.678;8.388;2022-08-19T07:59:12;18.00;;;6.80;;
6864;SDS011;3471;49.678;8.388;2022-08-19T08:01:38;9.30;;;7.30;;
6864;SDS011;3471;49.678;8.388;2022-08-19T08:04:05;8.30;;;7.50;;
6864;SDS011;3471;49.678;8.388;2022-08-19T08:06:50;8.37;;;7.63;;
6864;SDS011;3471;49.678;8.388;2022-08-19T08:09:37;17.23;;;8.30;;
6864;SDS011;3471;49.678;8.388;2022-08-19T08:12:09;6.60;;;6.20;;
6864;SDS011;3471;49.678;8.388;2022-08-19T08:14:55;9.13;;;8.23;;
6864;SDS011;3471;49.678;8.388;2022-08-19T08:17:24;10.40;;;6.73;;
6864;SDS011;3471;49.678;8.388;2022-08-19T08:19:52;8.40;;;7.60;;
6864;SDS011;3471;49.678;8.388;2022-08-19T08:22:19;9.40;;;8.50;;
6864;SDS011;3471;49.678;8.388;2022-08-19T08:27:35;15.30;;;8.47;;
6864;SDS011;3471;49.678;8.388;2022-08-19T08:30:06;9.50;;;6.20;;
6864;SDS011;3471;49.678;8.388;2022-08-19T08:32:35;8.90;;;7.00;;
6864;SDS011;3471;49.678;8.388;2022-08-19T08:35:02;10.50;;;7.10;;
6864;SDS011;3471;49.678;8.388;2022-08-19T08:37:32;7.27;;;6.63;;
6864;SDS011;3471;49.678;8.388;2022-08-19T08:39:58;8.40;;;7.67;;
6864;SDS011;3471;49.678;8.388;2022-08-19T08:42:27;6.23;;;4.93;;
6864;SDS011;3471;49.678;8.388;2022-08-19T08:45:00;6.20;;;5.70;;
6864;SDS011;3471;49.678;8.388;2022-08-19T08:47:30;6.85;;;6.25;;
6864;SDS011;3471;49.678;8.388;2022-08-19T08:50:03;8.43;;;7.60;;
6864;SDS011;3471;49.678;8.388;2022-08-19T08:52:33;10.47;;;6.13;;
6864;SDS011;3471;49.678;8.388;2022-08-19T08:55:07;7.97;;;6.93;;
6864;SDS011;3471;49.678;8.388;2022-08-19T08:57:44;14.93;;;5.10;;
6864;SDS011;3471;49.678;8.388;2022-08-19T09:00:26;6.03;;;4.73;;
6864;SDS011;3471;49.678;8.388;2022-08-19T09:02:55;10.13;;;7.70;;
6864;SDS011;3471;49.678;8.388;2022-08-19T09:05:23;24.13;;;6.33;;
6864;SDS011;3471;49.678;8.388;2022-08-19T09:10:35;6.33;;;5.93;;
6864;SDS011;3471;49.678;8.388;2022-08-19T09:15:39;5.90;;;5.50;;
6864;SDS011;3471;49.678;8.388;2022-08-19T09:18:22;13.00;;;8.53;;
6864;SDS011;3471;49.678;8.388;2022-08-19T09:20:48;8.37;;;7.77;;
6864;SDS011;3471;49.678;8.388;2022-08-19T09:23:13;9.70;;;6.00;;
6864;SDS011;3471;49.678;8.388;2022-08-19T09:25:39;7.17;;;6.67;;
6864;SDS011;3471;49.678;8.388;2022-08-19T09:28:05;6.33;;;5.87;;
6864;SDS011;3471;49.678;8.388;2022-08-19T09:30:34;5.87;;;5.33;;
6864;SDS011;3471;49.678;8.388;2022-08-19T09:33:04;6.33;;;5.67;;
6864;SDS011;3471;49.678;8.388;2022-08-19T09:35:31;6.17;;;5.57;;
6864;SDS011;3471;49.678;8.388;2022-08-19T09:37:57;7.33;;;5.53;;
6864;SDS011;3471;49.678;8.388;2022-08-19T09:40:24;5.90;;;5.40;;
6864;SDS011;3471;49.678;8.388;2022-08-19T09:42:51;7.97;;;5.53;;
6864;SDS011;3471;49.678;8.388;2022-08-19T09:45:18;6.20;;;5.70;;
6864;SDS011;3471;49.678;8.388;2022-08-19T09:47:46;10.50;;;6.53;;
6864;SDS011;3471;49.678;8.388;2022-08-19T09:57:31;8.73;;;7.80;;
6864;SDS011;3471;49.678;8.388;2022-08-19T09:59:57;5.63;;;5.13;;
6864;SDS011;3471;49.678;8.388;2022-08-19T10:02:23;7.70;;;7.03;;
6864;SDS011;3471;49.678;8.388;2022-08-19T10:04:49;8.93;;;8.13;;
6864;SDS011;3471;49.678;8.388;2022-08-19T10:07:34;6.70;;;6.13;;
6864;SDS011;3471;49.678;8.388;2022-08-19T10:14:51;10.03;;;7.07;;
6864;SDS011;3471;49.678;8.388;2022-08-19T10:17:19;8.27;;;7.23;;
6864;SDS011;3471;49.678;8.388;2022-08-19T10:19:45;6.90;;;6.03;;
6864;SDS011;3471;49.678;8.388;2022-08-19T10:22:10;12.10;;;5.27;;
6864;SDS011;3471;49.678;8.388;2022-08-19T10:24:38;6.97;;;6.37;;
6864;SDS011;3471;49.678;8.388;2022-08-19T10:27:04;5.77;;;5.17;;
6864;SDS011;3471;49.678;8.388;2022-08-19T10:29:30;21.87;;;7.37;;
6864;SDS011;3471;49.678;8.388;2022-08-19T10:32:02;5.20;;;4.70;;
6864;SDS011;3471;49.678;8.388;2022-08-19T10:34:30;7.85;;;5.85;;
6864;SDS011;3471;49.678;8.388;2022-08-19T10:36:57;8.50;;;7.07;;
6864;SDS011;3471;49.678;8.388;2022-08-19T10:39:24;5.55;;;5.15;;
6864;SDS011;3471;49.678;8.388;2022-08-19T10:41:50;4.73;;;3.60;;
6864;SDS011;3471;49.678;8.388;2022-08-19T10:44:15;3.90;;;3.60;;
6864;SDS011;3471;49.678;8.388;2022-08-19T10:46:43;6.60;;;5.90;;
6864;SDS011;3471;49.678;8.388;2022-08-19T10:49:10;5.57;;;5.07;;
6864;SDS011;3471;49.678;8.388;2022-08-19T10:56:46;5.00;;;4.60;;
6864;SDS011;3471;49.678;8.388;2022-08-19T11:01:49;8.50;;;5.80;;
6864;SDS011;3471;49.678;8.388;2022-08-19T11:04:16;5.60;;;5.20;;
6864;SDS011;3471;49.678;8.388;2022-08-19T11:06:43;7.70;;;6.13;;
6864;SDS011;3471;49.678;8.388;2022-08-19T11:09:12;5.67;;;5.23;;
6864;SDS011;3471;49.678;8.388;2022-08-19T11:11:40;5.30;;;4.80;;
6864;SDS011;3471;49.678;8.388;2022-08-19T11:14:07;6.40;;;4.73;;
6864;SDS011;3471;49.678;8.388;2022-08-19T11:16:34;6.00;;;5.45;;
6864;SDS011;3471;49.678;8.388;2022-08-19T11:19:00;7.10;;;5.40;;
6864;SDS011;3471;49.678;8.388;2022-08-19T11:21:28;5.60;;;5.13;;
6864;SDS011;3471;49.678;8.388;2022-08-19T11:23:58;6.80;;;6.20;;
6864;SDS011;3471;49.678;8.388;2022-08-19T11:26:26;6.87;;;6.13;;
6864;SDS011;3471;49.678;8.388;2022-08-19T11:28:53;9.50;;;6.27;;
6864;SDS011;3471;49.678;8.388;2022-08-19T11:31:20;5.63;;;4.97;;
6864;SDS011;3471;49.678;8.388;2022-08-19T11:38:44;4.87;;;4.30;;
6864;SDS011;3471;49.678;8.388;2022-08-19T11:41:10;3.63;;;3.40;;
6864;SDS011;3471;49.678;8.388;2022-08-19T11:43:36;3.83;;;2.80;;
6864;SDS011;3471;49.678;8.388;2022-08-19T11:46:05;3.77;;;3.47;;
6864;SDS011;3471;49.678;8.388;2022-08-19T11:48:33;4.90;;;3.87;;
6864;SDS011;3471;49.678;8.388;2022-08-19T11:51:02;5.10;;;3.60;;
6864;SDS011;3471;49.678;8.388;2022-08-19T11:53:31;8.10;;;3.60;;
6864;SDS011;3471;49.678;8.388;2022-08-19T11:55:57;3.05;;;2.75;;
6864;SDS011;3471;49.678;8.388;2022-08-19T11:58:23;5.43;;;4.93;;
6864;SDS011;3471;49.678;8.388;2022-08-19T12:00:49;4.50;;;4.10;;
6864;SDS011;3471;49.678;8.388;2022-08-19T12:03:16;4.50;;;4.10;;
6864;SDS011;3471;49.678;8.388;2022-08-19T12:05:43;2.50;;;2.30;;
6864;SDS011;3471;49.678;8.388;2022-08-19T12:08:09;3.33;;;3.10;;
6864;SDS011;3471;49.678;8.388;2022-08-19T12:10:36;3.20;;;2.33;;
6864;SDS011;3471;49.678;8.388;2022-08-19T12:13:02;5.30;;;3.20;;
6864;SDS011;3471;49.678;8.388;2022-08-19T12:15:28;4.73;;;3.53;;
6864;SDS011;3471;49.678;8.388;2022-08-19T12:17:54;3.07;;;2.60;;
6864;SDS011;3471;49.678;8.388;2022-08-19T12:27:39;5.60;;;5.10;;
6864;SDS011;3471;49.678;8.388;2022-08-19T12:32:31;3.07;;;2.87;;
6864;SDS011;3471;49.678;8.388;2022-08-19T12:34:57;3.10;;;2.87;;
6864;SDS011;3471;49.678;8.388;2022-08-19T12:37:22;13.40;;;3.97;;
6864;SDS011;3471;49.678;8.388;2022-08-19T12:39:48;3.30;;;2.67;;
6864;SDS011;3471;49.678;8.388;2022-08-19T12:42:14;6.10;;;5.23;;
6864;SDS011;3471;49.678;8.388;2022-08-19T12:44:41;3.03;;;2.73;;
6864;SDS011;3471;49.678;8.388;2022-08-19T12:47:08;4.30;;;3.53;;
6864;SDS011;3471;49.678;8.388;2022-08-19T12:52:02;4.90;;;3.00;;
6864;SDS011;3471;49.678;8.388;2022-08-19T12:54:29;5.87;;;3.53;;
6864;SDS011;3471;49.678;8.388;2022-08-19T12:56:55;4.13;;;3.37;;
6864;SDS011;3471;49.678;8.388;2022-08-19T12:59:22;4.43;;;3.40;;
6864;SDS011;3471;49.678;8.388;2022-08-19T13:01:48;4.43;;;3.43;;
6864;SDS011;3471;49.678;8.388;2022-08-19T13:04:13;5.15;;;4.65;;
6864;SDS011;3471;49.678;8.388;2022-08-19T13:09:05;4.40;;;3.15;;
6864;SDS011;3471;49.678;8.388;2022-08-19T13:11:31;5.10;;;4.10;;
6864;SDS011;3471;49.678;8.388;2022-08-19T13:14:00;4.40;;;4.07;;
6864;SDS011;3471;49.678;8.388;2022-08-19T13:16:26;4.57;;;4.27;;
6864;SDS011;3471;49.678;8.388;2022-08-19T13:18:52;3.90;;;3.47;;
6864;SDS011;3471;49.678;8.388;2022-08-19T13:21:19;3.87;;;3.57;;
6864;SDS011;3471;49.678;8.388;2022-08-19T13:23:47;3.97;;;2.87;;
6864;SDS011;3471;49.678;8.388;2022-08-19T13:26:13;5.37;;;4.87;;
6864;SDS011;3471;49.678;8.388;2022-08-19T13:28:40;5.30;;;3.80;;
6864;SDS011;3471;49.678;8.388;2022-08-19T13:31:25;5.03;;;4.63;;
6864;SDS011;3471;49.678;8.388;2022-08-19T13:34:11;2.40;;;2.10;;
6864;SDS011;3471;49.678;8.388;2022-08-19T13:36:38;3.13;;;2.83;;
6864;SDS011;3471;49.678;8.388;2022-08-19T13:39:04;4.27;;;3.37;;
6864;SDS011;3471;49.678;8.388;2022-08-19T13:41:32;4.13;;;3.20;;
6864;SDS011;3471;49.678;8.388;2022-08-19T13:43:58;2.00;;;1.80;;
6864;SDS011;3471;49.678;8.388;2022-08-19T13:46:25;2.00;;;1.90;;
6864;SDS011;3471;49.678;8.388;2022-08-19T13:48:52;2.57;;;2.37;;
6864;SDS011;3471;49.678;8.388;2022-08-19T13:53:43;7.60;;;3.60;;
6864;SDS011;3471;49.678;8.388;2022-08-19T13:56:10;4.30;;;2.13;;
6864;SDS011;3471;49.678;8.388;2022-08-19T13:58:41;2.53;;;2.30;;
6864;SDS011;3471;49.678;8.388;2022-08-19T14:01:08;3.87;;;3.40;;
6864;SDS011;3471;49.678;8.388;2022-08-19T14:03:34;5.73;;;3.47;;
6864;SDS011;3471;49.678;8.388;2022-08-19T14:06:01;13.80;;;4.27;;
6864;SDS011;3471;49.678;8.388;2022-08-19T14:08:26;5.50;;;3.40;;
6864;SDS011;3471;49.678;8.388;2022-08-19T14:10:53;4.87;;;2.53;;
6864;SDS011;3471;49.678;8.388;2022-08-19T14:13:20;3.90;;;3.60;;
6864;SDS011;3471;49.678;8.388;2022-08-19T14:15:47;6.50;;;3.80;;
6864;SDS011;3471;49.678;8.388;2022-08-19T14:18:15;4.17;;;3.87;;
6864;SDS011;3471;49.678;8.388;2022-08-19T14:20:42;5.53;;;4.30;;
6864;SDS011;3471;49.678;8.388;2022-08-19T14:23:08;3.87;;;3.47;;
6864;SDS011;3471;49.678;8.388;2022-08-19T14:25:34;3.07;;;2.83;;
6864;SDS011;3471;49.678;8.388;2022-08-19T14:28:00;3.50;;;2.73;;
6864;SDS011;3471;49.678;8.388;2022-08-19T14:30:27;6.60;;;3.03;;
6864;SDS011;3471;49.678;8.388;2022-08-19T14:32:55;3.50;;;3.00;;
6864;SDS011;3471;49.678;8.388;2022-08-19T14:35:23;5.07;;;4.57;;
6864;SDS011;3471;49.678;8.388;2022-08-19T14:37:50;3.03;;;2.47;;
6864;SDS011;3471;49.678;8.388;2022-08-19T14:40:20;6.33;;;3.20;;
6864;SDS011;3471;49.678;8.388;2022-08-19T14:42:54;5.70;;;4.13;;
6864;SDS011;3471;49.678;8.388;2022-08-19T14:45:24;3.90;;;3.60;;
6864;SDS011;3471;49.678;8.388;2022-08-19T14:47:51;5.73;;;5.33;;
6864;SDS011;3471;49.678;8.388;2022-08-19T14:50:17;4.37;;;4.00;;
6864;SDS011;3471;49.678;8.388;2022-08-19T14:52:45;1.90;;;1.70;;
6864;SDS011;3471;49.678;8.388;2022-08-19T14:55:13;2.50;;;2.30;;
6864;SDS011;3471;49.678;8.388;2022-08-19T14:57:40;3.13;;;2.70;;
6864;SDS011;3471;49.678;8.388;2022-08-19T15:00:06;2.80;;;2.43;;
6864;SDS011;3471;49.678;8.388;2022-08-19T15:02:37;2.40;;;1.87;;
6864;SDS011;3471;49.678;8.388;2022-08-19T15:05:03;4.33;;;3.83;;
6864;SDS011;3471;49.678;8.388;2022-08-19T15:07:29;2.50;;;2.30;;
6864;SDS011;3471;49.678;8.388;2022-08-19T15:09:55;3.03;;;2.47;;
6864;SDS011;3471;49.678;8.388;2022-08-19T15:12:21;2.80;;;2.30;;
6864;SDS011;3471;49.678;8.388;2022-08-19T15:14:47;4.40;;;4.00;;
6864;SDS011;3471;49.678;8.388;2022-08-19T15:17:15;2.80;;;2.60;;
6864;SDS011;3471;49.678;8.388;2022-08-19T15:19:42;8.13;;;3.40;;
6864;SDS011;3471;49.678;8.388;2022-08-19T15:22:07;2.73;;;1.93;;
6864;SDS011;3471;49.678;8.388;2022-08-19T15:24:33;2.83;;;2.63;;
6864;SDS011;3471;49.678;8.388;2022-08-19T15:27:00;7.00;;;4.20;;
6864;SDS011;3471;49.678;8.388;2022-08-19T15:29:26;2.53;;;2.33;;
6864;SDS011;3471;49.678;8.388;2022-08-19T15:31:52;3.47;;;3.17;;
6864;SDS011;3471;49.678;8.388;2022-08-19T15:34:21;3.93;;;3.63;;
6864;SDS011;3471;49.678;8.388;2022-08-19T15:36:47;4.60;;;4.20;;
6864;SDS011;3471;49.678;8.388;2022-08-19T15:39:13;2.63;;;1.90;;
6864;SDS011;3471;49.678;8.388;2022-08-19T15:41:39;3.00;;;2.70;;
6864;SDS011;3471;49.678;8.388;2022-08-19T15:44:08;4.27;;;3.97;;
6864;SDS011;3471;49.678;8.388;2022-08-19T15:46:36;7.45;;;3.40;;
6864;SDS011;3471;49.678;8.388;2022-08-19T15:49:03;3.67;;;3.37;;
6864;SDS011;3471;49.678;8.388;2022-08-19T15:51:30;4.50;;;3.43;;
6864;SDS011;3471;49.678;8.388;2022-08-19T15:53:59;3.47;;;3.17;;
6864;SDS011;3471;49.678;8.388;2022-08-19T15:56:27;5.03;;;4.53;;
6864;SDS011;3471;49.678;8.388;2022-08-19T15:59:11;2.43;;;2.20;;
6864;SDS011;3471;49.678;8.388;2022-08-19T16:01:55;3.13;;;2.83;;
6864;SDS011;3471;49.678;8.388;2022-08-19T16:04:39;2.60;;;2.40;;
6864;SDS011;3471;49.678;8.388;2022-08-19T16:07:23;4.57;;;4.10;;
6864;SDS011;3471;49.678;8.388;2022-08-19T16:09:49;2.97;;;2.67;;
6864;SDS011;3471;49.678;8.388;2022-08-19T16:12:15;2.80;;;2.50;;
6864;SDS011;3471;49.678;8.388;2022-08-19T16:14:40;3.27;;;3.07;;
6864;SDS011;3471;49.678;8.388;2022-08-19T16:17:06;4.33;;;3.90;;
6864;SDS011;3471;49.678;8.388;2022-08-19T16:19:35;3.40;;;3.10;;
6864;SDS011;3471;49.678;8.388;2022-08-19T16:22:02;3.97;;;3.67;;
6864;SDS011;3471;49.678;8.388;2022-08-19T16:24:30;4.60;;;4.20;;
6864;SDS011;3471;49.678;8.388;2022-08-19T16:26:57;5.33;;;3.70;;
6864;SDS011;3471;49.678;8.388;2022-08-19T16:29:25;4.63;;;4.23;;
6864;SDS011;3471;49.678;8.388;2022-08-19T16:31:51;4.40;;;2.70;;
6864;SDS011;3471;49.678;8.388;2022-08-19T16:34:19;4.00;;;3.70;;
6864;SDS011;3471;49.678;8.388;2022-08-19T16:36:45;4.00;;;3.70;;
6864;SDS011;3471;49.678;8.388;2022-08-19T16:39:11;4.03;;;3.10;;
6864;SDS011;3471;49.678;8.388;2022-08-19T16:41:38;3.20;;;2.90;;
6864;SDS011;3471;49.678;8.388;2022-08-19T16:44:06;3.83;;;3.50;;
6864;SDS011;3471;49.678;8.388;2022-08-19T16:46:34;4.27;;;3.63;;
6864;SDS011;3471;49.678;8.388;2022-08-19T16:49:01;5.37;;;4.60;;
6864;SDS011;3471;49.678;8.388;2022-08-19T16:51:28;4.47;;;4.17;;
6864;SDS011;3471;49.678;8.388;2022-08-19T16:53:54;10.37;;;3.17;;
6864;SDS011;3471;49.678;8.388;2022-08-19T16:56:19;4.33;;;3.93;;
6864;SDS011;3471;49.678;8.388;2022-08-19T16:58:46;4.03;;;3.73;;
6864;SDS011;3471;49.678;8.388;2022-08-19T17:01:12;5.70;;;5.30;;
6864;SDS011;3471;49.678;8.388;2022-08-19T17:03:38;4.17;;;3.77;;
6864;SDS011;3471;49.678;8.388;2022-08-19T17:06:08;4.20;;;3.80;;
6864;SDS011;3471;49.678;8.388;2022-08-19T17:08:37;3.20;;;2.90;;
6864;SDS011;3471;49.678;8.388;2022-08-19T17:11:03;3.37;;;3.07;;
6864;SDS011;3471;49.678;8.388;2022-08-19T17:13:28;5.30;;;4.80;;
6864;SDS011;3471;49.678;8.388;2022-08-19T17:15:54;5.60;;;5.10;;
6864;SDS011;3471;49.678;8.388;2022-08-19T17:18:21;8.10;;;3.20;;
6864;SDS011;3471;49.678;8.388;2022-08-19T17:20:48;5.13;;;4.63;;
6864;SDS011;3471;49.678;8.388;2022-08-19T17:23:15;6.83;;;6.23;;
6864;SDS011;3471;49.678;8.388;2022-08-19T17:25:42;4.50;;;3.70;;
6864;SDS011;3471;49.678;8.388;2022-08-19T17:28:09;4.03;;;3.73;;
6864;SDS011;3471;49.678;8.388;2022-08-19T17:30:36;5.63;;;5.23;;
6864;SDS011;3471;49.678;8.388;2022-08-19T17:33:03;5.00;;;4.60;;
6864;SDS011;3471;49.678;8.388;2022-08-19T17:35:30;5.17;;;3.67;;
6864;SDS011;3471;49.678;8.388;2022-08-19T17:37:56;3.80;;;3.50;;
6864;SDS011;3471;49.678;8.388;2022-08-19T17:40:23;4.83;;;4.43;;
6864;SDS011;3471;49.678;8.388;2022-08-19T17:42:50;3.03;;;2.73;;
6864;SDS011;3471;49.678;8.388;2022-08-19T17:45:16;5.13;;;4.50;;
6864;SDS011;3471;49.678;8.388;2022-08-19T17:47:44;5.43;;;5.03;;
6864;SDS011;3471;49.678;8.388;2022-08-19T17:50:10;5.27;;;4.80;;
6864;SDS011;3471;49.678;8.388;2022-08-19T17:52:37;4.37;;;3.97;;
6864;SDS011;3471;49.678;8.388;2022-08-19T17:55:04;9.30;;;4.37;;
6864;SDS011;3471;49.678;8.388;2022-08-19T17:57:31;7.63;;;6.07;;
6864;SDS011;3471;49.678;8.388;2022-08-19T17:59:58;7.53;;;5.63;;
6864;SDS011;3471;49.678;8.388;2022-08-19T18:02:24;11.30;;;6.03;;
6864;SDS011;3471;49.678;8.388;2022-08-19T18:04:50;3.67;;;3.37;;
6864;SDS011;3471;49.678;8.388;2022-08-19T18:07:16;7.80;;;5.83;;
6864;SDS011;3471;49.678;8.388;2022-08-19T18:09:45;6.13;;;4.77;;
6864;SDS011;3471;49.678;8.388;2022-08-19T18:12:19;4.07;;;3.67;;
6864;SDS011;3471;49.678;8.388;2022-08-19T18:14:49;5.07;;;4.57;;
6864;SDS011;3471;49.678;8.388;2022-08-19T18:17:16;5.63;;;5.13;;
6864;SDS011;3471;49.678;8.388;2022-08-19T18:19:43;4.53;;;4.23;;
6864;SDS011;3471;49.678;8.388;2022-08-19T18:24:50;4.77;;;4.07;;
6864;SDS011;3471;49.678;8.388;2022-08-19T18:27:16;4.90;;;4.30;;
6864;SDS011;3471;49.678;8.388;2022-08-19T18:29:42;6.13;;;4.03;;
6864;SDS011;3471;49.678;8.388;2022-08-19T18:32:09;4.90;;;4.60;;
6864;SDS011;3471;49.678;8.388;2022-08-19T18:34:38;7.43;;;4.37;;
6864;SDS011;3471;49.678;8.388;2022-08-19T18:37:07;9.63;;;7.77;;
6864;SDS011;3471;49.678;8.388;2022-08-19T18:39:33;7.10;;;6.40;;
6864;SDS011;3471;49.678;8.388;2022-08-19T18:42:17;5.50;;;4.37;;
6864;SDS011;3471;49.678;8.388;2022-08-19T18:45:02;8.90;;;6.73;;
6864;SDS011;3471;49.678;8.388;2022-08-19T18:47:47;6.27;;;4.23;;
6864;SDS011;3471;49.678;8.388;2022-08-19T18:50:31;6.23;;;4.90;;
6864;SDS011;3471;49.678;8.388;2022-08-19T18:52:57;9.83;;;5.03;;
6864;SDS011;3471;49.678;8.388;2022-08-19T18:55:23;10.53;;;5.97;;
6864;SDS011;3471;49.678;8.388;2022-08-19T18:57:50;5.07;;;4.67;;
6864;SDS011;3471;49.678;8.388;2022-08-19T19:00:16;8.97;;;6.13;;
6864;SDS011;3471;49.678;8.388;2022-08-19T19:02:42;5.63;;;5.13;;
6864;SDS011;3471;49.678;8.388;2022-08-19T19:05:09;5.67;;;5.17;;
6864;SDS011;3471;49.678;8.388;2022-08-19T19:07:37;7.10;;;6.47;;
6864;SDS011;3471;49.678;8.388;2022-08-19T19:10:04;7.83;;;7.00;;
6864;SDS011;3471;49.678;8.388;2022-08-19T19:12:33;5.77;;;5.00;;
6864;SDS011;3471;49.678;8.388;2022-08-19T19:15:00;6.80;;;6.20;;
6864;SDS011;3471;49.678;8.388;2022-08-19T19:17:29;6.00;;;5.50;;
6864;SDS011;3471;49.678;8.388;2022-08-19T19:19:55;8.13;;;6.10;;
6864;SDS011;3471;49.678;8.388;2022-08-19T19:22:21;6.70;;;5.90;;
6864;SDS011;3471;49.678;8.388;2022-08-19T19:24:47;5.37;;;4.87;;
6864;SDS011;3471;49.678;8.388;2022-08-19T19:27:14;6.93;;;6.43;;
6864;SDS011;3471;49.678;8.388;2022-08-19T19:29:42;6.93;;;6.30;;
6864;SDS011;3471;49.678;8.388;2022-08-19T19:32:29;6.37;;;5.70;;
6864;SDS011;3471;49.678;8.388;2022-08-19T19:34:57;9.70;;;7.33;;
6864;SDS011;3471;49.678;8.388;2022-08-19T19:37:23;4.87;;;4.50;;
6864;SDS011;3471;49.678;8.388;2022-08-19T19:39:49;4.17;;;3.00;;
6864;SDS011;3471;49.678;8.388;2022-08-19T19:42:16;9.57;;;8.53;;
6864;SDS011;3471;49.678;8.388;2022-08-19T19:44:44;5.73;;;5.17;;
6864;SDS011;3471;49.678;8.388;2022-08-19T19:47:12;13.43;;;7.80;;
6864;SDS011;3471;49.678;8.388;2022-08-19T19:49:39;7.10;;;6.47;;
6864;SDS011;3471;49.678;8.388;2022-08-19T19:52:05;5.27;;;4.53;;
6864;SDS011;3471;49.678;8.388;2022-08-19T19:54:31;7.37;;;6.70;;
6864;SDS011;3471;49.678;8.388;2022-08-19T19:56:58;7.23;;;6.40;;
6864;SDS011;3471;49.678;8.388;2022-08-19T19:59:23;5.50;;;5.00;;
6864;SDS011;3471;49.678;8.388;2022-08-19T20:01:49;9.20;;;6.10;;
6864;SDS011;3471;49.678;8.388;2022-08-19T20:04:15;8.73;;;7.93;;
6864;SDS011;3471;49.678;8.388;2022-08-19T20:06:42;6.23;;;5.30;;
6864;SDS011;3471;49.678;8.388;2022-08-19T20:09:09;8.90;;;7.60;;
6864;SDS011;3471;49.678;8.388;2022-08-19T20:11:41;5.17;;;4.77;;
6864;SDS011;3471;49.678;8.388;2022-08-19T20:14:14;6.30;;;5.53;;
6864;SDS011;3471;49.678;8.388;2022-08-19T20:16:45;5.33;;;4.20;;
6864;SDS011;3471;49.678;8.388;2022-08-19T20:19:14;7.23;;;6.63;;
6864;SDS011;3471;49.678;8.388;2022-08-19T20:21:42;6.50;;;6.00;;
6864;SDS011;3471;49.678;8.388;2022-08-19T20:24:13;5.77;;;4.47;;
6864;SDS011;3471;49.678;8.388;2022-08-19T20:26:41;8.77;;;5.57;;
6864;SDS011;3471;49.678;8.388;2022-08-19T20:29:08;6.87;;;6.27;;
6864;SDS011;3471;49.678;8.388;2022-08-19T20:31:34;4.33;;;3.60;;
6864;SDS011;3471;49.678;8.388;2022-08-19T20:34:00;9.67;;;7.27;;
6864;SDS011;3471;49.678;8.388;2022-08-19T20:36:26;5.97;;;5.40;;
6864;SDS011;3471;49.678;8.388;2022-08-19T20:38:51;6.93;;;5.80;;
6864;SDS011;3471;49.678;8.388;2022-08-19T20:41:17;5.20;;;4.53;;
6864;SDS011;3471;49.678;8.388;2022-08-19T20:43:44;8.80;;;6.83;;
6864;SDS011;3471;49.678;8.388;2022-08-19T20:46:11;6.10;;;5.50;;
6864;SDS011;3471;49.678;8.388;2022-08-19T20:48:37;9.00;;;7.40;;
6864;SDS011;3471;49.678;8.388;2022-08-19T20:51:04;15.07;;;8.03;;
6864;SDS011;3471;49.678;8.388;2022-08-19T20:53:29;7.07;;;6.40;;
6864;SDS011;3471;49.678;8.388;2022-08-19T20:55:55;10.50;;;7.93;;
6864;SDS011;3471;49.678;8.388;2022-08-19T20:58:22;5.00;;;4.50;;
6864;SDS011;3471;49.678;8.388;2022-08-19T21:00:49;7.27;;;6.60;;
6864;SDS011;3471;49.678;8.388;2022-08-19T21:03:20;8.00;;;5.20;;
6864;SDS011;3471;49.678;8.388;2022-08-19T21:05:48;5.47;;;4.53;;
6864;SDS011;3471;49.678;8.388;2022-08-19T21:08:14;7.57;;;5.13;;
6864;SDS011;3471;49.678;8.388;2022-08-19T21:10:44;6.20;;;4.43;;
6864;SDS011;3471;49.678;8.388;2022-08-19T21:13:10;11.10;;;6.90;;
6864;SDS011;3471;49.678;8.388;2022-08-19T21:15:36;10.50;;;6.00;;
6864;SDS011;3471;49.678;8.388;2022-08-19T21:18:07;5.70;;;5.23;;
6864;SDS011;3471;49.678;8.388;2022-08-19T21:20:35;7.27;;;5.23;;
6864;SDS011;3471;49.678;8.388;2022-08-19T21:23:02;6.50;;;5.27;;
6864;SDS011;3471;49.678;8.388;2022-08-19T21:25:28;9.03;;;5.80;;
6864;SDS011;3471;49.678;8.388;2022-08-19T21:27:54;6.33;;;4.30;;
6864;SDS011;3471;49.678;8.388;2022-08-19T21:30:20;5.00;;;4.60;;
6864;SDS011;3471;49.678;8.388;2022-08-19T21:32:45;7.83;;;4.47;;
6864;SDS011;3471;49.678;8.388;2022-08-19T21:35:12;6.77;;;5.43;;
6864;SDS011;3471;49.678;8.388;2022-08-19T21:40:03;13.37;;;3.57;;
6864;SDS011;3471;49.678;8.388;2022-08-19T21:44:55;2.90;;;2.67;;
6864;SDS011;3471;49.678;8.388;2022-08-19T21:47:21;6.07;;;4.07;;
6864;SDS011;3471;49.678;8.388;2022-08-19T21:49:47;4.00;;;3.43;;
6864;SDS011;3471;49.678;8.388;2022-08-19T21:52:12;5.40;;;4.23;;
6864;SDS011;3471;49.678;8.388;2022-08-19T21:54:44;4.43;;;3.50;;
6864;SDS011;3471;49.678;8.388;2022-08-19T21:57:10;5.30;;;4.73;;
6864;SDS011;3471;49.678;8.388;2022-08-19T21:59:36;4.37;;;4.00;;
6864;SDS011;3471;49.678;8.388;2022-08-19T22:02:05;4.03;;;2.60;;
6864;SDS011;3471;49.678;8.388;2022-08-19T22:04:30;3.77;;;3.47;;
6864;SDS011;3471;49.678;8.388;2022-08-19T22:06:56;5.17;;;4.87;;
6864;SDS011;3471;49.678;8.388;2022-08-19T22:09:21;8.10;;;3.53;;
6864;SDS011;3471;49.678;8.388;2022-08-19T22:11:47;5.20;;;4.50;;
6864;SDS011;3471;49.678;8.388;2022-08-19T22:14:13;6.63;;;3.67;;
6864;SDS011;3471;49.678;8.388;2022-08-19T22:16:38;3.57;;;3.27;;
6864;SDS011;3471;49.678;8.388;2022-08-19T22:19:04;5.40;;;3.13;;
6864;SDS011;3471;49.678;8.388;2022-08-19T22:21:30;5.10;;;3.80;;
6864;SDS011;3471;49.678;8.388;2022-08-19T22:23:56;3.97;;;3.47;;
6864;SDS011;3471;49.678;8.388;2022-08-19T22:28:47;5.10;;;3.30;;
6864;SDS011;3471;49.678;8.388;2022-08-19T22:31:12;2.80;;;2.60;;
6864;SDS011;3471;49.678;8.388;2022-08-19T22:33:38;3.10;;;2.80;;
6864;SDS011;3471;49.678;8.388;2022-08-19T22:36:04;3.50;;;2.03;;
6864;SDS011;3471;49.678;8.388;2022-08-19T22:38:33;6.13;;;5.03;;
6864;SDS011;3471;49.678;8.388;2022-08-19T22:41:00;3.80;;;3.50;;
6864;SDS011;3471;49.678;8.388;2022-08-19T22:45:56;6.10;;;2.90;;
6864;SDS011;3471;49.678;8.388;2022-08-19T22:48:25;3.22;;;2.78;;
6864;SDS011;3471;49.678;8.388;2022-08-19T22:50:52;2.53;;;2.20;;
6864;SDS011;3471;49.678;8.388;2022-08-19T22:53:38;5.27;;;3.43;;
6864;SDS011;3471;49.678;8.388;2022-08-19T22:56:06;3.25;;;2.95;;
6864;SDS011;3471;49.678;8.388;2022-08-19T22:58:33;3.07;;;2.87;;
6864;SDS011;3471;49.678;8.388;2022-08-19T23:00:59;9.37;;;3.33;;
6864;SDS011;3471;49.678;8.388;2022-08-19T23:03:25;4.90;;;3.37;;
6864;SDS011;3471;49.678;8.388;2022-08-19T23:05:51;6.13;;;3.40;;
6864;SDS011;3471;49.678;8.388;2022-08-19T23:08:16;3.90;;;3.27;;
6864;SDS011;3471;49.678;8.388;2022-08-19T23:13:08;6.03;;;3.73;;
6864;SDS011;3471;49.678;8.388;2022-08-19T23:25:22;2.93;;;1.80;;
6864;SDS011;3471;49.678;8.388;2022-08-19T23:27:50;2.45;;;2.17;;
6864;SDS011;3471;49.678;8.388;2022-08-19T23:33:04;7.00;;;3.20;;
6864;SDS011;3471;49.678;8.388;2022-08-19T23:35:37;17.43;;;4.07;;
6864;SDS011;3471;49.678;8.388;2022-08-19T23:38:04;3.40;;;2.87;;
6864;SDS011;3471;49.678;8.388;2022-08-19T23:40:32;14.40;;;3.75;;
6864;SDS011;3471;49.678;8.388;2022-08-19T23:42:58;4.75;;;3.60;;
6864;SDS011;3471;49.678;8.388;2022-08-19T23:45:25;11.45;;;3.00;;
6864;SDS011;3471;49.678;8.388;2022-08-19T23:47:51;6.50;;;3.20;;
6864;SDS011;3471;49.678;8.388;2022-08-19T23:50:17;3.20;;;2.60;;
6864;SDS011;3471;49.678;8.388;2022-08-19T23:52:44;5.17;;;2.43;;
6864;SDS011;3471;49.678;8.388;2022-08-19T23:55:18;2.27;;;2.07;;
6864;SDS011;3471;49.678;8.388;2022-08-19T23:57:46;3.53;;;2.00;;
